Arroyo de Medina, Mexico

3:06 AM CST on December 05, 2016 (GMT -0600)
UMPC San Jose Iturbide | | Change Station

Elev 6844 ft 21.01 °N, 100.39 °W | Updated 3 minutes ago

Scattered Clouds
Scattered Clouds
55.9 °F
Feels Like 55.9 °F
N
0.0
Wind Variable Wind from North
Gusts 1.0 mph

Today
High -- | Low -- °F
--% Chance of Precip.
Yesterday
High -- | Low -- °F
Precip. -- in
Pressure 30.14 in
Visibility 7.0 miles
Clouds Scattered Clouds 12000 ft
Dew Point 46 °F
Humidity 70%
Rainfall Not available.
Snow Depth Not available.
7:04 AM 5:59 PM
Waxing Crescent, 30% visible
METAR MMQT 050845Z 00000KT 7SM SCT120 10/08 A3014 RMK 8/030
Pressure 30.14 in
Visibility 7.0 miles
Clouds Scattered Clouds 12000 ft
Dew Point 46 °F
Humidity 70%
Rainfall Not available.
Snow Depth Not available.
7:04 AM 5:59 PM
Waxing Crescent, 30% visible
METAR MMQT 050845Z 00000KT 7SM SCT120 10/08 A3014 RMK 8/030

10-Day Weather Forecast

No radar image for this location.
×

Almanac

Astronomy

Dec. 05, 2016 Rise Set
Actual Time
Civil Twilight
Nautical Twilight
Astronomical Twilight
Moon
Length of Visible Light
Length of Day
Tomorrow will be .
, % of the Moon is Illuminated

Today's Extremes

Country Highs Country Lows

Community

WunderPhotos

Upload Photos

1,955,771 photos uploaded!

WunderBlog® & News

Nearby

Air Quality

  Air Quality AQ Index Pollutant
Not available.

Snow Depth

Station Depth Elevation

Earthquake Activity

City Distance Mag. Time & Date
Minimum magnitude displayed is 2.5.

Coastal Water Temperatures

Place Temperature

Stations

Nearby Weather Stations

Station Location Temp. Windchill Dew Point Humidity Wind Precip. Elev Updated Type